createdAt,value
2018-02-27T00:00:04.118Z,-1.76
2018-02-27T00:00:30.251Z,-1.82
2018-02-27T00:00:56.344Z,-1.76
2018-02-27T00:01:22.438Z,-1.76
2018-02-27T00:01:48.536Z,-1.69
2018-02-27T00:02:14.635Z,-1.82
2018-02-27T00:02:40.730Z,-1.77
2018-02-27T00:03:06.835Z,-1.84
2018-02-27T00:03:32.930Z,-1.82
2018-02-27T00:03:59.028Z,-1.84
2018-02-27T00:04:25.124Z,-1.86
2018-02-27T00:04:51.217Z,-1.84
2018-02-27T00:05:17.313Z,-1.77
2018-02-27T00:05:43.404Z,-1.84
2018-02-27T00:06:09.502Z,-1.79
2018-02-27T00:06:35.623Z,-1.71
2018-02-27T00:07:01.728Z,-1.64
2018-02-27T00:07:27.821Z,-1.65
2018-02-27T00:07:53.927Z,-1.68
2018-02-27T00:08:20.037Z,-1.62
2018-02-27T00:08:46.153Z,-1.65
2018-02-27T00:09:12.265Z,-1.61
2018-02-27T00:09:38.361Z,-1.66
2018-02-27T00:10:04.464Z,-1.65
2018-02-27T00:10:30.564Z,-1.62
2018-02-27T00:10:56.665Z,-1.68
2018-02-27T00:11:22.773Z,-1.69
2018-02-27T00:11:48.880Z,-1.66
2018-02-27T00:12:14.973Z,-1.65
2018-02-27T00:12:41.073Z,-1.68
2018-02-27T00:13:07.175Z,-1.69
2018-02-27T00:13:33.285Z,-1.65
2018-02-27T00:13:59.398Z,-1.76
2018-02-27T00:14:25.529Z,-1.83
2018-02-27T00:14:51.631Z,-1.79
2018-02-27T00:15:17.723Z,-1.69
2018-02-27T00:15:43.821Z,-1.66
2018-02-27T00:16:09.923Z,-1.65
2018-02-27T00:16:36.016Z,-1.74
2018-02-27T00:17:02.129Z,-1.74
2018-02-27T00:17:28.230Z,-1.76
2018-02-27T00:17:54.325Z,-1.76
2018-02-27T00:18:20.428Z,-1.66
2018-02-27T00:18:46.520Z,-1.79
2018-02-27T00:19:12.627Z,-1.72
2018-02-27T00:19:38.720Z,-1.69
2018-02-27T00:20:04.814Z,-1.66
2018-02-27T00:20:30.914Z,-1.68
2018-02-27T00:20:57.011Z,-1.68
2018-02-27T00:21:23.113Z,-1.65
2018-02-27T00:21:49.222Z,-1.61
2018-02-27T00:22:15.328Z,-1.64
2018-02-27T00:22:41.418Z,-1.58
2018-02-27T00:23:07.551Z,-1.65
2018-02-27T00:23:33.650Z,-1.62
2018-02-27T00:23:59.749Z,-1.66
2018-02-27T00:24:25.866Z,-1.71
2018-02-27T00:24:51.964Z,-1.68
2018-02-27T00:25:18.058Z,-1.71
2018-02-27T00:25:44.175Z,-1.69
2018-02-27T00:26:10.253Z,-1.66
2018-02-27T00:26:36.365Z,-1.66
2018-02-27T00:27:02.470Z,-1.66
2018-02-27T00:27:28.572Z,-1.65
2018-02-27T00:27:54.667Z,-1.56
2018-02-27T00:28:20.777Z,-1.54
2018-02-27T00:28:46.886Z,-1.56
2018-02-27T00:29:12.996Z,-1.58
2018-02-27T00:29:39.091Z,-1.56
2018-02-27T00:30:05.199Z,-1.59
2018-02-27T00:30:31.286Z,-1.48
2018-02-27T00:30:57.386Z,-1.5
2018-02-27T00:31:23.488Z,-1.51
2018-02-27T00:31:49.584Z,-1.54
2018-02-27T00:32:15.687Z,-1.5
2018-02-27T00:32:41.804Z,-1.54
2018-02-27T00:33:07.896Z,-1.51
2018-02-27T00:33:33.998Z,-1.56
2018-02-27T00:34:00.091Z,-1.5
2018-02-27T00:34:26.189Z,-1.51
2018-02-27T00:34:52.291Z,-1.4
2018-02-27T00:35:18.392Z,-1.46
2018-02-27T00:35:44.486Z,-1.35
2018-02-27T00:36:10.579Z,-1.47
2018-02-27T00:36:36.681Z,-1.54
2018-02-27T00:37:02.780Z,-1.48
2018-02-27T00:37:28.879Z,-1.48
2018-02-27T00:37:54.977Z,-1.46
2018-02-27T00:38:21.091Z,-1.46
2018-02-27T00:38:47.188Z,-1.44
2018-02-27T00:39:13.283Z,-1.44
2018-02-27T00:39:39.393Z,-1.47
2018-02-27T00:40:05.498Z,-1.46
2018-02-27T00:40:31.597Z,-1.46
2018-02-27T00:40:57.692Z,-1.44
2018-02-27T00:41:23.799Z,-1.5
2018-02-27T00:41:49.902Z,-1.46
2018-02-27T00:42:16.012Z,-1.46
2018-02-27T00:42:42.115Z,-1.47
2018-02-27T00:43:08.208Z,-1.5
2018-02-27T00:43:34.309Z,-1.53
2018-02-27T00:44:00.421Z,-1.58
2018-02-27T00:44:26.515Z,-1.59
2018-02-27T00:44:52.617Z,-1.48
2018-02-27T00:45:18.713Z,-1.56
2018-02-27T00:45:44.809Z,-1.54
2018-02-27T00:46:10.913Z,-1.58
2018-02-27T00:46:37.015Z,-1.51
2018-02-27T00:47:03.110Z,-1.53
2018-02-27T00:47:29.217Z,-1.61
2018-02-27T00:47:55.313Z,-1.56
2018-02-27T00:48:21.412Z,-1.59
2018-02-27T00:48:47.511Z,-1.58
2018-02-27T00:49:13.606Z,-1.58
2018-02-27T00:49:39.712Z,-1.56
2018-02-27T00:50:05.827Z,-1.56
2018-02-27T00:50:31.919Z,-1.53
2018-02-27T00:50:58.014Z,-1.56
2018-02-27T00:51:24.115Z,-1.5
2018-02-27T00:51:50.231Z,-1.5
2018-02-27T00:52:16.329Z,-1.58
2018-02-27T00:52:42.425Z,-1.61
2018-02-27T00:53:08.529Z,-1.62
2018-02-27T00:53:34.625Z,-1.56
2018-02-27T00:54:00.727Z,-1.56
2018-02-27T00:54:26.823Z,-1.64
2018-02-27T00:54:52.926Z,-1.58
2018-02-27T00:55:19.022Z,-1.58
2018-02-27T00:55:45.125Z,-1.54
2018-02-27T00:56:11.219Z,-1.59
2018-02-27T00:56:37.322Z,-1.5
2018-02-27T00:57:03.419Z,-1.53
2018-02-27T00:57:29.518Z,-1.54
2018-02-27T00:57:55.613Z,-1.51
2018-02-27T00:58:21.700Z,-1.54
2018-02-27T00:58:47.798Z,-1.51
2018-02-27T00:59:13.915Z,-1.56
2018-02-27T00:59:40.011Z,-1.54
2018-02-27T01:00:06.109Z,-1.54
2018-02-27T01:00:32.212Z,-1.46
2018-02-27T01:00:58.304Z,-1.4
2018-02-27T01:01:24.395Z,-1.38
2018-02-27T01:01:50.499Z,-1.43
2018-02-27T01:02:16.593Z,-1.5
2018-02-27T01:02:42.697Z,-1.4
2018-02-27T01:03:08.795Z,-1.46
2018-02-27T01:03:34.886Z,-1.46
2018-02-27T01:04:00.983Z,-1.58
2018-02-27T01:04:27.108Z,-1.46
2018-02-27T01:04:53.208Z,-1.46
2018-02-27T01:05:19.301Z,-1.48
2018-02-27T01:05:45.401Z,-1.44
2018-02-27T01:06:11.500Z,-1.5
2018-02-27T01:06:37.620Z,-1.51
2018-02-27T01:07:03.744Z,-1.54
2018-02-27T01:07:29.844Z,-1.64
2018-02-27T01:07:55.935Z,-1.66
2018-02-27T01:08:22.034Z,-1.71
2018-02-27T01:08:48.132Z,-1.68
2018-02-27T01:09:14.225Z,-1.53
2018-02-27T01:09:40.328Z,-1.62
2018-02-27T01:10:06.429Z,-1.58
2018-02-27T01:10:32.521Z,-1.58
2018-02-27T01:10:58.624Z,-1.58
2018-02-27T01:11:24.740Z,-1.65
2018-02-27T01:11:50.839Z,-1.65
2018-02-27T01:12:16.938Z,-1.65
2018-02-27T01:12:43.034Z,-1.58
2018-02-27T01:13:09.130Z,-1.76
2018-02-27T01:13:35.228Z,-1.77
2018-02-27T01:14:01.322Z,-1.87
2018-02-27T01:14:27.442Z,-1.86
2018-02-27T01:14:53.540Z,-1.87
2018-02-27T01:15:19.640Z,-2
2018-02-27T01:15:45.748Z,-2.04
2018-02-27T01:16:11.848Z,-2.07
2018-02-27T01:16:37.949Z,-1.94
2018-02-27T01:17:04.042Z,-1.9
2018-02-27T01:17:30.152Z,-2.04
2018-02-27T01:17:56.246Z,-2.05
2018-02-27T01:18:22.345Z,-2.02
2018-02-27T01:18:48.445Z,-1.98
2018-02-27T01:19:14.543Z,-1.98
2018-02-27T01:19:40.642Z,-2.01
2018-02-27T01:20:06.737Z,-2.04
2018-02-27T01:20:32.833Z,-2.1
2018-02-27T01:20:58.939Z,-2.13
2018-02-27T01:21:25.029Z,-2.1
2018-02-27T01:21:51.136Z,-2.08
2018-02-27T01:22:17.232Z,-1.98
2018-02-27T01:22:43.326Z,-2.07
2018-02-27T01:23:09.427Z,-2.01
2018-02-27T01:23:35.520Z,-2.07
2018-02-27T01:24:01.621Z,-2.02
2018-02-27T01:24:27.714Z,-2
2018-02-27T01:24:53.809Z,-1.95
2018-02-27T01:25:19.912Z,-1.98
2018-02-27T01:25:46.026Z,-2.02
2018-02-27T01:26:12.120Z,-2.08
2018-02-27T01:26:38.214Z,-2.05
2018-02-27T01:27:04.314Z,-2.07
2018-02-27T01:27:30.408Z,-2.05
2018-02-27T01:27:56.530Z,-2.12
2018-02-27T01:28:22.620Z,-2.1
2018-02-27T01:28:48.720Z,-2.1
2018-02-27T01:29:14.820Z,-2.01
2018-02-27T01:29:40.914Z,-2.15
2018-02-27T01:30:07.009Z,-2.15
2018-02-27T01:30:33.114Z,-2.23
2018-02-27T01:30:59.229Z,-2.15
2018-02-27T01:31:25.332Z,-2.19
2018-02-27T01:31:51.429Z,-2.22
2018-02-27T01:32:17.525Z,-2.08
2018-02-27T01:32:43.614Z,-2.15
2018-02-27T01:33:09.713Z,-2.19
2018-02-27T01:33:35.816Z,-2.15
2018-02-27T01:34:01.915Z,-2.22
2018-02-27T01:34:28.023Z,-2.25
2018-02-27T01:34:54.128Z,-2.3
2018-02-27T01:35:20.222Z,-2.25
2018-02-27T01:35:46.319Z,-2.28
2018-02-27T01:36:12.420Z,-2.4
2018-02-27T01:36:38.519Z,-2.32
2018-02-27T01:37:04.616Z,-2.28
2018-02-27T01:37:30.718Z,-2.26
2018-02-27T01:37:56.818Z,-2.4
2018-02-27T01:38:22.905Z,-2.26
2018-02-27T01:38:49.011Z,-2.34
2018-02-27T01:39:15.118Z,-2.34
2018-02-27T01:39:41.236Z,-2.4
2018-02-27T01:40:07.333Z,-2.34
2018-02-27T01:40:33.426Z,-2.38
2018-02-27T01:40:59.528Z,-2.3
2018-02-27T01:41:25.626Z,-2.26
2018-02-27T01:41:51.718Z,-2.3
2018-02-27T01:42:17.818Z,-2.35
2018-02-27T01:42:43.916Z,-2.28
2018-02-27T01:43:10.014Z,-2.38
2018-02-27T01:43:36.108Z,-2.32
2018-02-27T01:44:02.210Z,-2.3
2018-02-27T01:44:28.303Z,-2.38
2018-02-27T01:44:54.397Z,-2.34
2018-02-27T01:45:20.499Z,-2.25
2018-02-27T01:45:46.593Z,-2.22
2018-02-27T01:46:12.694Z,-2.28
2018-02-27T01:46:38.790Z,-2.22
2018-02-27T01:47:04.888Z,-2.21
2018-02-27T01:47:30.986Z,-2.15
2018-02-27T01:47:57.088Z,-2.08
2018-02-27T01:48:23.185Z,-2.1
2018-02-27T01:48:49.280Z,-2.1
2018-02-27T01:49:15.376Z,-2.08
2018-02-27T01:49:41.476Z,-2.08
2018-02-27T01:50:07.579Z,-2.04
2018-02-27T01:50:33.673Z,-2.07
2018-02-27T01:50:59.777Z,-2.02
2018-02-27T01:51:25.878Z,-2.01
2018-02-27T01:51:51.977Z,-2.1
2018-02-27T01:52:18.072Z,-2.1
2018-02-27T01:52:44.220Z,-2.07
2018-02-27T01:53:10.318Z,-2.05
2018-02-27T01:53:36.416Z,-2.12
2018-02-27T01:54:02.514Z,-1.98
2018-02-27T01:54:28.616Z,-1.89
2018-02-27T01:54:54.709Z,-1.86
2018-02-27T01:55:20.813Z,-1.9
2018-02-27T01:55:46.901Z,-1.87
2018-02-27T01:56:13.047Z,-1.87
2018-02-27T01:56:39.150Z,-1.92
2018-02-27T01:57:05.247Z,-1.87
2018-02-27T01:57:31.346Z,-1.89
2018-02-27T01:57:57.441Z,-1.89
2018-02-27T01:58:23.537Z,-1.8
2018-02-27T01:58:49.634Z,-1.87
2018-02-27T01:59:15.735Z,-1.83
2018-02-27T01:59:41.831Z,-1.77
2018-02-27T02:00:07.923Z,-1.79
2018-02-27T02:00:34.024Z,-1.9
2018-02-27T02:01:00.127Z,-2.01
2018-02-27T02:01:26.224Z,-1.95
2018-02-27T02:01:52.328Z,-2.08
2018-02-27T02:02:18.420Z,-2.01
2018-02-27T02:02:44.522Z,-2.02
2018-02-27T02:03:10.616Z,-2.12
2018-02-27T02:03:36.715Z,-2.08
2018-02-27T02:04:02.817Z,-2.08
2018-02-27T02:04:28.913Z,-2.08
2018-02-27T02:04:55.006Z,-2.08
2018-02-27T02:05:21.115Z,-2.15
2018-02-27T02:05:47.226Z,-2.04
2018-02-27T02:06:13.319Z,-2.02
2018-02-27T02:06:39.422Z,-2.13
2018-02-27T02:07:05.515Z,-2.02
2018-02-27T02:07:31.615Z,-2.1
2018-02-27T02:07:57.710Z,-2.07
2018-02-27T02:08:23.818Z,-2.01
2018-02-27T02:08:49.909Z,-2.08
2018-02-27T02:09:16.014Z,-2
2018-02-27T02:09:42.118Z,-1.94
2018-02-27T02:10:08.219Z,-1.92
2018-02-27T02:10:34.313Z,-2.04
2018-02-27T02:11:00.413Z,-1.94
2018-02-27T02:11:26.504Z,-1.97
2018-02-27T02:11:52.603Z,-1.94
2018-02-27T02:12:18.699Z,-2
2018-02-27T02:12:44.793Z,-1.92
2018-02-27T02:13:10.893Z,-1.84
2018-02-27T02:13:36.983Z,-1.9
2018-02-27T02:14:03.080Z,-1.89
2018-02-27T02:14:29.181Z,-1.94
2018-02-27T02:14:55.279Z,-1.94
2018-02-27T02:15:21.373Z,-2
2018-02-27T02:15:47.506Z,-2.01
2018-02-27T02:16:13.631Z,-1.9
2018-02-27T02:16:39.722Z,-1.86
2018-02-27T02:17:05.834Z,-1.89
2018-02-27T02:17:31.929Z,-1.8
2018-02-27T02:17:58.034Z,-1.92
2018-02-27T02:18:24.134Z,-1.97
2018-02-27T02:18:50.231Z,-1.89
2018-02-27T02:19:16.326Z,-1.84
2018-02-27T02:19:42.424Z,-1.86
2018-02-27T02:20:08.532Z,-1.86
2018-02-27T02:20:34.626Z,-1.94
2018-02-27T02:21:00.724Z,-1.97
2018-02-27T02:21:26.815Z,-1.9
2018-02-27T02:21:52.924Z,-1.95
2018-02-27T02:22:19.036Z,-1.9
2018-02-27T02:22:45.138Z,-1.9
2018-02-27T02:23:11.236Z,-1.86
2018-02-27T02:23:37.329Z,-1.87
2018-02-27T02:24:03.441Z,-1.87
2018-02-27T02:24:29.552Z,-1.9
2018-02-27T02:24:55.647Z,-1.98
2018-02-27T02:25:21.757Z,-2.02
2018-02-27T02:25:47.847Z,-1.9
2018-02-27T02:26:13.951Z,-1.86
2018-02-27T02:26:40.038Z,-1.9
2018-02-27T02:27:06.140Z,-2.01
2018-02-27T02:27:32.258Z,-2.02
2018-02-27T02:27:58.378Z,-2.13
2018-02-27T02:28:24.481Z,-2.18
2018-02-27T02:28:50.593Z,-2.19
2018-02-27T02:29:16.692Z,-2.15
2018-02-27T02:29:42.783Z,-2.16
2018-02-27T02:30:08.882Z,-2.22
2018-02-27T02:30:34.980Z,-2.16
2018-02-27T02:31:01.076Z,-2.12
2018-02-27T02:31:27.172Z,-2.18
2018-02-27T02:31:53.268Z,-2.16
2018-02-27T02:32:19.364Z,-2.1
2018-02-27T02:32:45.461Z,-2.18
2018-02-27T02:33:11.569Z,-2.15
2018-02-27T02:33:37.663Z,-2.19
2018-02-27T02:34:03.937Z,-2.19
2018-02-27T02:34:30.039Z,-2.22
2018-02-27T02:34:56.130Z,-2.19
2018-02-27T02:35:22.226Z,-2.12
2018-02-27T02:35:48.323Z,-2.18
2018-02-27T02:36:14.423Z,-2.08
2018-02-27T02:36:40.515Z,-2.08
2018-02-27T02:37:06.615Z,-2.12
2018-02-27T02:37:32.713Z,-2.1
2018-02-27T02:37:58.816Z,-2.04
2018-02-27T02:38:24.924Z,-2.13
2018-02-27T02:38:51.016Z,-2.15
2018-02-27T02:39:17.117Z,-2.08
2018-02-27T02:39:43.218Z,-2.08
2018-02-27T02:40:09.310Z,-2.04
2018-02-27T02:40:35.410Z,-2.04
2018-02-27T02:41:01.507Z,-2.04
2018-02-27T02:41:27.604Z,-1.98
2018-02-27T02:41:53.700Z,-2
2018-02-27T02:42:19.804Z,-2
2018-02-27T02:42:45.897Z,-1.86
2018-02-27T02:43:11.992Z,-2
2018-02-27T02:43:38.093Z,-1.92
2018-02-27T02:44:04.184Z,-1.92
2018-02-27T02:44:30.286Z,-2.04
2018-02-27T02:44:56.384Z,-1.87
2018-02-27T02:45:22.477Z,-1.89
2018-02-27T02:45:48.589Z,-1.94
2018-02-27T02:46:14.689Z,-2.01
2018-02-27T02:46:40.790Z,-1.94
2018-02-27T02:47:06.923Z,-1.98
2018-02-27T02:47:33.016Z,-1.92
2018-02-27T02:47:59.117Z,-2.01
2018-02-27T02:48:25.217Z,-2
2018-02-27T02:48:51.313Z,-1.89
2018-02-27T02:49:17.416Z,-2.01
2018-02-27T02:49:43.501Z,-1.9
2018-02-27T02:50:09.601Z,-1.84
2018-02-27T02:50:35.707Z,-1.9
2018-02-27T02:51:01.811Z,-1.84
2018-02-27T02:51:27.887Z,-1.94
2018-02-27T02:51:53.988Z,-1.77
2018-02-27T02:52:20.088Z,-1.84
2018-02-27T02:52:46.192Z,-1.83
2018-02-27T02:53:12.306Z,-1.87
2018-02-27T02:53:38.404Z,-1.94
2018-02-27T02:54:04.518Z,-1.95
2018-02-27T02:54:30.613Z,-2.13
2018-02-27T02:54:56.714Z,-2.13
2018-02-27T02:55:22.830Z,-2.08
2018-02-27T02:55:48.924Z,-2.07
2018-02-27T02:56:15.027Z,-2.07
2018-02-27T02:56:41.136Z,-2.07
2018-02-27T02:57:07.224Z,-1.98
2018-02-27T02:57:33.325Z,-2.02
2018-02-27T02:57:59.423Z,-1.98
2018-02-27T02:58:25.522Z,-1.92
2018-02-27T02:58:51.624Z,-1.98
2018-02-27T02:59:17.726Z,-1.98
2018-02-27T02:59:43.816Z,-2.07
2018-02-27T03:00:09.930Z,-2.02
2018-02-27T03:00:36.033Z,-2.07
2018-02-27T03:01:02.128Z,-2.12
2018-02-27T03:01:28.225Z,-2.08
2018-02-27T03:01:54.321Z,-2.13
2018-02-27T03:02:20.444Z,-2.08
2018-02-27T03:02:46.536Z,-2.07
2018-02-27T03:03:12.631Z,-2.1
2018-02-27T03:03:38.748Z,-2.16
2018-02-27T03:04:04.839Z,-2.19
2018-02-27T03:04:30.940Z,-2.13
2018-02-27T03:04:57.053Z,-2.23
2018-02-27T03:05:23.178Z,-2.15
2018-02-27T03:05:49.276Z,-2.23
2018-02-27T03:06:15.368Z,-2.12
2018-02-27T03:06:41.470Z,-2.19
2018-02-27T03:07:07.567Z,-2.08
2018-02-27T03:07:33.666Z,-2.13
2018-02-27T03:07:59.791Z,-2.05
2018-02-27T03:08:25.864Z,-2.08
2018-02-27T03:08:51.956Z,-2.12
2018-02-27T03:09:18.059Z,-2.19
2018-02-27T03:09:44.156Z,-2.25
2018-02-27T03:10:10.274Z,-2.25
2018-02-27T03:10:36.368Z,-2.3
2018-02-27T03:11:02.460Z,-2.25
2018-02-27T03:11:28.556Z,-2.19
2018-02-27T03:11:54.655Z,-2.26
2018-02-27T03:12:20.746Z,-2.21
2018-02-27T03:12:46.851Z,-2.19
2018-02-27T03:13:12.945Z,-2.25
2018-02-27T03:13:39.044Z,-2.15
2018-02-27T03:14:05.143Z,-2.22
2018-02-27T03:14:31.243Z,-2.15
2018-02-27T03:14:57.344Z,-2.26
2018-02-27T03:15:23.435Z,-2.18
2018-02-27T03:15:49.535Z,-2.22
2018-02-27T03:16:15.649Z,-2.28
2018-02-27T03:16:41.746Z,-2.26
2018-02-27T03:17:07.841Z,-2.34
2018-02-27T03:17:33.941Z,-2.22
2018-02-27T03:18:00.033Z,-2.25
2018-02-27T03:18:26.141Z,-2.21
2018-02-27T03:18:52.259Z,-2.37
2018-02-27T03:19:18.355Z,-2.34
2018-02-27T03:19:44.454Z,-2.25
2018-02-27T03:20:10.549Z,-2.21
2018-02-27T03:20:36.643Z,-2.3
2018-02-27T03:21:02.763Z,-2.28
2018-02-27T03:21:28.860Z,-2.26
2018-02-27T03:21:54.954Z,-2.4
2018-02-27T03:22:21.053Z,-2.26
2018-02-27T03:22:47.148Z,-2.19
2018-02-27T03:23:13.244Z,-2.23
2018-02-27T03:23:39.347Z,-2.21
2018-02-27T03:24:05.442Z,-2.23
2018-02-27T03:24:31.560Z,-2.19
2018-02-27T03:24:57.679Z,-2.23
2018-02-27T03:25:23.775Z,-2.26
2018-02-27T03:25:49.879Z,-2.18
2018-02-27T03:26:15.988Z,-2.25
2018-02-27T03:26:42.091Z,-2.26
2018-02-27T03:27:08.187Z,-2.28
2018-02-27T03:27:34.295Z,-2.16
2018-02-27T03:28:00.399Z,-2.25
2018-02-27T03:28:26.502Z,-2.25
2018-02-27T03:28:52.596Z,-2.28
2018-02-27T03:29:18.696Z,-2.26
2018-02-27T03:29:44.818Z,-2.26
2018-02-27T03:30:10.941Z,-2.26
2018-02-27T03:30:37.042Z,-2.3
2018-02-27T03:31:03.138Z,-2.28
2018-02-27T03:31:29.238Z,-2.28
2018-02-27T03:31:55.350Z,-2.34
2018-02-27T03:32:21.455Z,-2.3
2018-02-27T03:32:47.569Z,-2.21
2018-02-27T03:33:13.663Z,-2.21
2018-02-27T03:33:39.780Z,-2.22
2018-02-27T03:34:05.910Z,-2.22
2018-02-27T03:34:31.985Z,-2.28
2018-02-27T03:34:58.083Z,-2.22
2018-02-27T03:35:24.186Z,-2.25
2018-02-27T03:35:50.277Z,-2.34
2018-02-27T03:36:16.372Z,-2.26
2018-02-27T03:36:42.465Z,-2.32
2018-02-27T03:37:08.582Z,-2.4
2018-02-27T03:37:34.682Z,-2.3
2018-02-27T03:38:00.801Z,-2.23
2018-02-27T03:38:26.900Z,-2.41
2018-02-27T03:38:52.999Z,-2.41
2018-02-27T03:39:19.093Z,-2.41
2018-02-27T03:39:45.186Z,-2.48
2018-02-27T03:40:11.286Z,-2.53
2018-02-27T03:40:37.380Z,-2.42
2018-02-27T03:41:03.477Z,-2.45
2018-02-27T03:41:29.571Z,-2.52
2018-02-27T03:41:55.669Z,-2.6
2018-02-27T03:42:21.777Z,-2.6
2018-02-27T03:42:47.880Z,-2.5
2018-02-27T03:43:13.975Z,-2.55
2018-02-27T03:43:40.080Z,-2.58
2018-02-27T03:44:06.172Z,-2.47
2018-02-27T03:44:32.273Z,-2.52
2018-02-27T03:44:58.381Z,-2.56
2018-02-27T03:45:24.489Z,-2.69
2018-02-27T03:45:50.592Z,-2.65
2018-02-27T03:46:16.685Z,-2.69
2018-02-27T03:46:42.781Z,-2.58
2018-02-27T03:47:08.880Z,-2.59
2018-02-27T03:47:34.982Z,-2.59
2018-02-27T03:48:01.081Z,-2.63
2018-02-27T03:48:27.176Z,-2.58
2018-02-27T03:48:53.277Z,-2.58
2018-02-27T03:49:19.375Z,-2.69
2018-02-27T03:49:45.472Z,-2.55
2018-02-27T03:50:11.584Z,-2.65
2018-02-27T03:50:37.686Z,-2.66
2018-02-27T03:51:03.785Z,-2.76
2018-02-27T03:51:29.899Z,-2.74
2018-02-27T03:51:55.992Z,-2.78
2018-02-27T03:52:22.091Z,-2.73
2018-02-27T03:52:48.194Z,-2.65
2018-02-27T03:53:14.289Z,-2.76
2018-02-27T03:53:40.389Z,-2.73
2018-02-27T03:54:06.481Z,-2.74
2018-02-27T03:54:32.579Z,-2.74
2018-02-27T03:54:58.690Z,-2.8
2018-02-27T03:55:24.788Z,-2.76
2018-02-27T03:55:50.881Z,-2.77
2018-02-27T03:56:16.977Z,-2.71
2018-02-27T03:56:43.081Z,-2.69
2018-02-27T03:57:09.174Z,-2.77
2018-02-27T03:57:35.281Z,-2.73
2018-02-27T03:58:01.369Z,-2.76
2018-02-27T03:58:27.472Z,-2.8
2018-02-27T03:58:53.587Z,-2.83
2018-02-27T03:59:19.686Z,-2.8
2018-02-27T03:59:45.787Z,-2.78
2018-02-27T04:00:11.888Z,-2.86
2018-02-27T04:00:37.990Z,-2.86
2018-02-27T04:01:04.086Z,-2.78
2018-02-27T04:01:30.180Z,-2.86
2018-02-27T04:01:56.325Z,-2.78
2018-02-27T04:02:22.378Z,-2.74
2018-02-27T04:02:48.476Z,-2.81
2018-02-27T04:03:14.582Z,-2.83
2018-02-27T04:03:40.683Z,-2.76
2018-02-27T04:04:06.775Z,-2.71
2018-02-27T04:04:32.875Z,-2.8
2018-02-27T04:04:58.977Z,-2.78
2018-02-27T04:05:25.072Z,-2.78
2018-02-27T04:05:51.191Z,-2.73
2018-02-27T04:06:17.288Z,-2.76
2018-02-27T04:06:43.391Z,-2.8
2018-02-27T04:07:09.484Z,-2.76
2018-02-27T04:07:35.583Z,-2.81
2018-02-27T04:08:01.683Z,-2.66
2018-02-27T04:08:27.784Z,-2.88
2018-02-27T04:08:53.878Z,-2.88
2018-02-27T04:09:19.979Z,-2.86
2018-02-27T04:09:46.104Z,-2.91
2018-02-27T04:10:12.201Z,-2.92
2018-02-27T04:10:38.294Z,-2.91
2018-02-27T04:11:04.405Z,-2.92
2018-02-27T04:11:30.509Z,-2.84
2018-02-27T04:11:56.624Z,-2.86
2018-02-27T04:12:22.715Z,-2.89
2018-02-27T04:12:48.818Z,-2.77
2018-02-27T04:13:14.914Z,-2.81
2018-02-27T04:13:41.007Z,-2.8
2018-02-27T04:14:07.107Z,-2.81
2018-02-27T04:14:33.198Z,-2.8
2018-02-27T04:14:59.303Z,-2.71
2018-02-27T04:15:25.420Z,-2.74
2018-02-27T04:15:51.519Z,-2.71
2018-02-27T04:16:17.617Z,-2.74
2018-02-27T04:16:43.758Z,-2.84
2018-02-27T04:17:09.804Z,-2.81
2018-02-27T04:17:35.906Z,-2.86
2018-02-27T04:18:02.067Z,-2.81
2018-02-27T04:18:28.165Z,-2.8
2018-02-27T04:18:54.268Z,-2.66
2018-02-27T04:19:20.361Z,-2.81
2018-02-27T04:19:46.462Z,-2.78
2018-02-27T04:20:12.561Z,-2.8
2018-02-27T04:20:38.663Z,-2.76
2018-02-27T04:21:04.751Z,-2.76
2018-02-27T04:21:30.852Z,-2.77
2018-02-27T04:21:56.945Z,-2.77
2018-02-27T04:22:23.047Z,-2.78
2018-02-27T04:22:49.142Z,-2.78
2018-02-27T04:23:15.235Z,-2.77
2018-02-27T04:23:41.345Z,-2.69
2018-02-27T04:24:07.442Z,-2.81
2018-02-27T04:24:33.534Z,-2.76
2018-02-27T04:24:59.632Z,-2.74
2018-02-27T04:25:25.725Z,-2.89
2018-02-27T04:25:51.819Z,-2.8
2018-02-27T04:26:17.955Z,-2.86
2018-02-27T04:26:44.054Z,-2.76
2018-02-27T04:27:10.168Z,-2.78
2018-02-27T04:27:36.264Z,-2.76
2018-02-27T04:28:02.363Z,-2.78
2018-02-27T04:28:28.456Z,-2.81
2018-02-27T04:28:54.575Z,-2.73
2018-02-27T04:29:20.674Z,-2.81
2018-02-27T04:29:46.783Z,-2.86
2018-02-27T04:30:12.887Z,-2.89
2018-02-27T04:30:39.000Z,-2.95
2018-02-27T04:31:05.100Z,-2.92
2018-02-27T04:31:31.193Z,-2.83
2018-02-27T04:31:57.292Z,-2.8
2018-02-27T04:32:23.386Z,-2.83
2018-02-27T04:32:49.488Z,-2.81
2018-02-27T04:33:15.581Z,-2.69
2018-02-27T04:33:41.679Z,-2.81
2018-02-27T04:34:07.779Z,-2.73
2018-02-27T04:34:33.870Z,-2.73
2018-02-27T04:34:59.973Z,-2.77
2018-02-27T04:35:26.069Z,-2.76
2018-02-27T04:35:52.162Z,-2.81
2018-02-27T04:36:18.262Z,-2.8
2018-02-27T04:36:44.356Z,-2.71
2018-02-27T04:37:10.472Z,-2.86
2018-02-27T04:37:36.574Z,-2.76
2018-02-27T04:38:02.683Z,-2.8
2018-02-27T04:38:28.782Z,-2.91
2018-02-27T04:38:54.878Z,-2.88
2018-02-27T04:39:20.990Z,-2.77
2018-02-27T04:39:47.093Z,-2.91
2018-02-27T04:40:13.185Z,-2.94
2018-02-27T04:40:39.298Z,-2.89
2018-02-27T04:41:05.399Z,-2.94
2018-02-27T04:41:31.488Z,-2.92
2018-02-27T04:41:57.589Z,-2.88
2018-02-27T04:42:23.686Z,-2.95
2018-02-27T04:42:49.786Z,-2.84
2018-02-27T04:43:15.880Z,-2.83
2018-02-27T04:43:41.983Z,-2.86
2018-02-27T04:44:08.082Z,-2.84
2018-02-27T04:44:34.178Z,-2.81
2018-02-27T04:45:00.274Z,-2.86
2018-02-27T04:45:26.373Z,-2.84
2018-02-27T04:45:52.468Z,-2.8
2018-02-27T04:46:18.563Z,-2.63
2018-02-27T04:46:44.661Z,-2.78
2018-02-27T04:47:10.774Z,-2.76
2018-02-27T04:47:36.891Z,-2.71
2018-02-27T04:48:03.002Z,-2.65
2018-02-27T04:48:29.097Z,-2.7
2018-02-27T04:48:55.197Z,-2.65
2018-02-27T04:49:21.295Z,-2.6
2018-02-27T04:49:47.389Z,-2.65
2018-02-27T04:50:13.491Z,-2.69
2018-02-27T04:50:39.585Z,-2.63
2018-02-27T04:51:05.682Z,-2.63
2018-02-27T04:51:31.800Z,-2.73
2018-02-27T04:51:57.900Z,-2.65
2018-02-27T04:52:23.995Z,-2.69
2018-02-27T04:52:50.089Z,-2.73
2018-02-27T04:53:16.202Z,-2.74
2018-02-27T04:53:42.297Z,-2.66
2018-02-27T04:54:08.399Z,-2.71
2018-02-27T04:54:34.494Z,-2.73
2018-02-27T04:55:00.613Z,-2.76
2018-02-27T04:55:26.712Z,-2.74
2018-02-27T04:55:52.807Z,-2.71
2018-02-27T04:56:18.915Z,-2.77
2018-02-27T04:56:45.003Z,-2.78
2018-02-27T04:57:11.105Z,-2.76
2018-02-27T04:57:37.215Z,-2.59
2018-02-27T04:58:03.316Z,-2.71
2018-02-27T04:58:29.415Z,-2.69
2018-02-27T04:58:55.512Z,-2.55
2018-02-27T04:59:21.605Z,-2.73
2018-02-27T04:59:47.701Z,-2.56
2018-02-27T05:00:13.802Z,-2.66
2018-02-27T05:00:39.927Z,-2.6
2018-02-27T05:01:06.035Z,-2.62
2018-02-27T05:01:32.151Z,-2.47
2018-02-27T05:01:58.248Z,-2.55
2018-02-27T05:02:24.344Z,-2.58
2018-02-27T05:02:50.438Z,-2.59
2018-02-27T05:03:16.535Z,-2.45
2018-02-27T05:03:42.657Z,-2.6
2018-02-27T05:04:08.773Z,-2.52
2018-02-27T05:04:34.867Z,-2.58
2018-02-27T05:05:00.963Z,-2.66
2018-02-27T05:05:27.058Z,-2.6
2018-02-27T05:05:53.172Z,-2.6
2018-02-27T05:06:19.265Z,-2.7
2018-02-27T05:06:45.367Z,-2.77
2018-02-27T05:07:11.460Z,-2.69
2018-02-27T05:07:37.564Z,-2.59
2018-02-27T05:08:03.660Z,-2.59
2018-02-27T05:08:29.754Z,-2.62
2018-02-27T05:08:55.851Z,-2.59
2018-02-27T05:09:21.948Z,-2.59
2018-02-27T05:09:48.042Z,-2.73
2018-02-27T05:10:14.138Z,-2.77
2018-02-27T05:10:40.235Z,-2.74
2018-02-27T05:11:06.333Z,-2.74
2018-02-27T05:11:32.433Z,-2.76
2018-02-27T05:11:58.531Z,-2.65
2018-02-27T05:12:24.629Z,-2.66
2018-02-27T05:12:50.750Z,-2.73
2018-02-27T05:13:16.844Z,-2.77
2018-02-27T05:13:42.960Z,-2.76
2018-02-27T05:14:09.061Z,-2.78
2018-02-27T05:14:35.155Z,-2.71
2018-02-27T05:15:01.255Z,-2.81
2018-02-27T05:15:27.356Z,-2.76
2018-02-27T05:15:53.450Z,-2.69
2018-02-27T05:16:19.608Z,-2.6
2018-02-27T05:16:45.659Z,-2.62
2018-02-27T05:17:11.771Z,-2.63
2018-02-27T05:17:37.871Z,-2.52
2018-02-27T05:18:03.971Z,-2.48
2018-02-27T05:18:30.068Z,-2.7
2018-02-27T05:18:56.164Z,-2.6
2018-02-27T05:19:22.268Z,-2.63
2018-02-27T05:19:48.364Z,-2.53
2018-02-27T05:20:14.455Z,-2.71
2018-02-27T05:20:40.558Z,-2.6
2018-02-27T05:21:06.651Z,-2.59
2018-02-27T05:21:32.759Z,-2.7
2018-02-27T05:21:58.849Z,-2.58
2018-02-27T05:22:24.944Z,-2.6
2018-02-27T05:22:51.064Z,-2.53
2018-02-27T05:23:17.161Z,-2.47
2018-02-27T05:23:43.257Z,-2.59
2018-02-27T05:24:09.354Z,-2.58
2018-02-27T05:24:35.446Z,-2.55
2018-02-27T05:25:01.545Z,-2.42
2018-02-27T05:25:27.646Z,-2.7
2018-02-27T05:25:53.746Z,-2.7
2018-02-27T05:26:19.838Z,-2.58
2018-02-27T05:26:45.935Z,-2.58
2018-02-27T05:27:12.034Z,-2.47
2018-02-27T05:27:38.127Z,-2.58
2018-02-27T05:28:04.229Z,-2.4
2018-02-27T05:28:30.332Z,-2.52
2018-02-27T05:28:56.441Z,-2.6
2018-02-27T05:29:22.552Z,-2.47
2018-02-27T05:29:48.655Z,-2.5
2018-02-27T05:30:14.759Z,-2.52
2018-02-27T05:30:40.852Z,-2.45
2018-02-27T05:31:06.953Z,-2.47
2018-02-27T05:31:33.046Z,-2.55
2018-02-27T05:31:59.144Z,-2.58
2018-02-27T05:32:25.247Z,-2.47
2018-02-27T05:32:51.339Z,-2.53
2018-02-27T05:33:17.438Z,-2.55
2018-02-27T05:33:43.540Z,-2.55
2018-02-27T05:34:09.633Z,-2.52
2018-02-27T05:34:35.773Z,-2.55
2018-02-27T05:35:01.833Z,-2.55
2018-02-27T05:35:27.926Z,-2.62
2018-02-27T05:35:54.027Z,-2.69
2018-02-27T05:36:20.121Z,-2.69
2018-02-27T05:36:46.221Z,-2.59
2018-02-27T05:37:12.311Z,-2.62
2018-02-27T05:37:38.423Z,-2.69